sensor_id;sensor_type;location;lat;lon;timestamp;pressure;altitude;pressure_sealevel;temperature
18713;BMP280;9485;49.386;8.674;2022-09-13T00:00:58;99959.94;;;18.83
18713;BMP280;9485;49.386;8.674;2022-09-13T00:06:21;99946.00;;;18.80
18713;BMP280;9485;49.386;8.674;2022-09-13T00:11:42;99945.41;;;18.74
18713;BMP280;9485;49.386;8.674;2022-09-13T00:17:02;99926.66;;;18.65
18713;BMP280;9485;49.386;8.674;2022-09-13T00:22:25;99902.59;;;18.61
18713;BMP280;9485;49.386;8.674;2022-09-13T00:27:46;99901.81;;;18.53
18713;BMP280;9485;49.386;8.674;2022-09-13T00:33:07;99906.31;;;18.41
18713;BMP280;9485;49.386;8.674;2022-09-13T00:38:29;99906.63;;;18.30
18713;BMP280;9485;49.386;8.674;2022-09-13T00:43:52;99896.66;;;18.23
18713;BMP280;9485;49.386;8.674;2022-09-13T00:49:17;99898.31;;;18.19
18713;BMP280;9485;49.386;8.674;2022-09-13T00:54:44;99905.53;;;18.12
18713;BMP280;9485;49.386;8.674;2022-09-13T01:00:09;99921.13;;;18.11
18713;BMP280;9485;49.386;8.674;2022-09-13T01:05:36;99900.53;;;18.06
18713;BMP280;9485;49.386;8.674;2022-09-13T01:11:01;99904.47;;;18.03
18713;BMP280;9485;49.386;8.674;2022-09-13T01:16:23;99897.06;;;18.00
18713;BMP280;9485;49.386;8.674;2022-09-13T01:22:19;99900.44;;;17.98
18713;BMP280;9485;49.386;8.674;2022-09-13T01:28:34;99915.09;;;17.95
18713;BMP280;9485;49.386;8.674;2022-09-13T01:34:17;99909.53;;;17.89
18713;BMP280;9485;49.386;8.674;2022-09-13T01:40:02;99896.34;;;17.86
18713;BMP280;9485;49.386;8.674;2022-09-13T01:45:35;99902.22;;;17.81
18713;BMP280;9485;49.386;8.674;2022-09-13T01:51:06;99902.03;;;17.79
18713;BMP280;9485;49.386;8.674;2022-09-13T01:56:37;99922.91;;;17.74
18713;BMP280;9485;49.386;8.674;2022-09-13T02:02:05;99925.56;;;17.72
18713;BMP280;9485;49.386;8.674;2022-09-13T02:07:34;99914.06;;;17.64
18713;BMP280;9485;49.386;8.674;2022-09-13T02:12:59;99906.63;;;17.61
18713;BMP280;9485;49.386;8.674;2022-09-13T02:18:27;99905.78;;;17.53
18713;BMP280;9485;49.386;8.674;2022-09-13T02:23:54;99917.75;;;17.52
18713;BMP280;9485;49.386;8.674;2022-09-13T02:29:20;99926.09;;;17.50
18713;BMP280;9485;49.386;8.674;2022-09-13T02:34:47;99938.97;;;17.43
18713;BMP280;9485;49.386;8.674;2022-09-13T02:40:16;99952.59;;;17.37
18713;BMP280;9485;49.386;8.674;2022-09-13T02:45:46;99947.03;;;17.32
18713;BMP280;9485;49.386;8.674;2022-09-13T02:51:24;99940.56;;;17.32
18713;BMP280;9485;49.386;8.674;2022-09-13T02:56:58;99934.09;;;17.31
18713;BMP280;9485;49.386;8.674;2022-09-13T03:02:25;99929.69;;;17.30
18713;BMP280;9485;49.386;8.674;2022-09-13T03:07:48;99928.16;;;17.29
18713;BMP280;9485;49.386;8.674;2022-09-13T03:13:32;99926.94;;;17.25
18713;BMP280;9485;49.386;8.674;2022-09-13T03:19:22;99924.22;;;17.19
18713;BMP280;9485;49.386;8.674;2022-09-13T03:24:59;99909.53;;;17.15
18713;BMP280;9485;49.386;8.674;2022-09-13T03:30:23;99894.94;;;17.19
18713;BMP280;9485;49.386;8.674;2022-09-13T03:35:51;99897.22;;;17.20
18713;BMP280;9485;49.386;8.674;2022-09-13T03:41:18;99874.75;;;17.17
18713;BMP280;9485;49.386;8.674;2022-09-13T03:46:45;99861.03;;;17.15
18713;BMP280;9485;49.386;8.674;2022-09-13T03:52:07;99873.19;;;17.16
18713;BMP280;9485;49.386;8.674;2022-09-13T03:57:27;99868.28;;;17.16
18713;BMP280;9485;49.386;8.674;2022-09-13T04:02:49;99872.31;;;17.21
18713;BMP280;9485;49.386;8.674;2022-09-13T04:08:10;99885.06;;;17.20
18713;BMP280;9485;49.386;8.674;2022-09-13T04:13:31;99884.16;;;17.25
18713;BMP280;9485;49.386;8.674;2022-09-13T04:18:53;99927.03;;;17.32
18713;BMP280;9485;49.386;8.674;2022-09-13T04:24:14;99923.31;;;17.37
18713;BMP280;9485;49.386;8.674;2022-09-13T04:29:35;99921.09;;;17.43
18713;BMP280;9485;49.386;8.674;2022-09-13T04:34:57;99920.75;;;17.46
18713;BMP280;9485;49.386;8.674;2022-09-13T04:40:17;99910.06;;;17.47
18713;BMP280;9485;49.386;8.674;2022-09-13T04:45:41;99905.16;;;17.47
18713;BMP280;9485;49.386;8.674;2022-09-13T04:51:04;99913.72;;;17.47
18713;BMP280;9485;49.386;8.674;2022-09-13T04:56:25;99913.84;;;17.42
18713;BMP280;9485;49.386;8.674;2022-09-13T05:01:47;99904.72;;;17.43
18713;BMP280;9485;49.386;8.674;2022-09-13T05:07:09;99910.88;;;17.47
18713;BMP280;9485;49.386;8.674;2022-09-13T05:12:30;99908.63;;;17.53
18713;BMP280;9485;49.386;8.674;2022-09-13T05:17:51;99923.13;;;17.55
18713;BMP280;9485;49.386;8.674;2022-09-13T05:23:12;99934.59;;;17.63
18713;BMP280;9485;49.386;8.674;2022-09-13T05:28:35;99926.25;;;17.65
18713;BMP280;9485;49.386;8.674;2022-09-13T05:33:59;99954.41;;;17.81
18713;BMP280;9485;49.386;8.674;2022-09-13T05:39:21;99948.94;;;17.91
18713;BMP280;9485;49.386;8.674;2022-09-13T05:44:42;99944.06;;;17.99
18713;BMP280;9485;49.386;8.674;2022-09-13T05:50:05;99949.09;;;18.06
18713;BMP280;9485;49.386;8.674;2022-09-13T05:55:28;99955.81;;;18.15
18713;BMP280;9485;49.386;8.674;2022-09-13T06:00:52;99950.22;;;18.23
18713;BMP280;9485;49.386;8.674;2022-09-13T06:06:13;99944.53;;;18.30
18713;BMP280;9485;49.386;8.674;2022-09-13T06:11:35;99945.44;;;18.46
18713;BMP280;9485;49.386;8.674;2022-09-13T06:16:56;99951.06;;;18.66
18713;BMP280;9485;49.386;8.674;2022-09-13T06:22:16;99949.84;;;18.89
18713;BMP280;9485;49.386;8.674;2022-09-13T06:27:38;99932.84;;;19.12
18713;BMP280;9485;49.386;8.674;2022-09-13T06:33:00;99943.38;;;19.32
18713;BMP280;9485;49.386;8.674;2022-09-13T06:38:21;99925.69;;;19.48
18713;BMP280;9485;49.386;8.674;2022-09-13T06:43:43;99922.47;;;19.66
18713;BMP280;9485;49.386;8.674;2022-09-13T06:49:06;99924.94;;;19.77
18713;BMP280;9485;49.386;8.674;2022-09-13T06:54:28;99941.78;;;19.88
18713;BMP280;9485;49.386;8.674;2022-09-13T06:59:50;99942.75;;;19.98
18713;BMP280;9485;49.386;8.674;2022-09-13T07:05:11;99946.22;;;20.12
18713;BMP280;9485;49.386;8.674;2022-09-13T07:10:31;99953.44;;;20.28
18713;BMP280;9485;49.386;8.674;2022-09-13T07:15:53;99944.06;;;20.49
18713;BMP280;9485;49.386;8.674;2022-09-13T07:21:15;99940.03;;;20.67
18713;BMP280;9485;49.386;8.674;2022-09-13T07:26:37;99938.84;;;20.85
18713;BMP280;9485;49.386;8.674;2022-09-13T07:32:00;99938.59;;;21.06
18713;BMP280;9485;49.386;8.674;2022-09-13T07:37:20;99943.81;;;21.31
18713;BMP280;9485;49.386;8.674;2022-09-13T07:42:41;99946.38;;;21.59
18713;BMP280;9485;49.386;8.674;2022-09-13T07:48:03;99959.44;;;21.85
18713;BMP280;9485;49.386;8.674;2022-09-13T07:53:24;99960.66;;;22.23
18713;BMP280;9485;49.386;8.674;2022-09-13T07:58:47;99958.00;;;22.83
18713;BMP280;9485;49.386;8.674;2022-09-13T08:04:11;99953.09;;;23.53
18713;BMP280;9485;49.386;8.674;2022-09-13T08:09:32;99944.13;;;24.02
18713;BMP280;9485;49.386;8.674;2022-09-13T08:14:52;99948.16;;;24.25
18713;BMP280;9485;49.386;8.674;2022-09-13T08:20:14;99944.28;;;24.39
18713;BMP280;9485;49.386;8.674;2022-09-13T08:25:37;99935.81;;;24.51
18713;BMP280;9485;49.386;8.674;2022-09-13T08:31:03;99952.09;;;24.84
18713;BMP280;9485;49.386;8.674;2022-09-13T08:36:27;99941.50;;;25.15
18713;BMP280;9485;49.386;8.674;2022-09-13T08:42:14;99927.94;;;25.46
18713;BMP280;9485;49.386;8.674;2022-09-13T08:47:43;99921.13;;;26.21
18713;BMP280;9485;49.386;8.674;2022-09-13T08:53:18;99920.41;;;26.51
18713;BMP280;9485;49.386;8.674;2022-09-13T09:04:46;99913.00;;;26.59
18713;BMP280;9485;49.386;8.674;2022-09-13T09:10:17;99935.28;;;26.77
18713;BMP280;9485;49.386;8.674;2022-09-13T09:15:44;99942.53;;;26.88
18713;BMP280;9485;49.386;8.674;2022-09-13T09:21:14;99928.75;;;27.19
18713;BMP280;9485;49.386;8.674;2022-09-13T09:26:37;99914.34;;;28.08
18713;BMP280;9485;49.386;8.674;2022-09-13T09:32:14;99929.59;;;29.50
18713;BMP280;9485;49.386;8.674;2022-09-13T09:37:41;99921.50;;;30.38
18713;BMP280;9485;49.386;8.674;2022-09-13T09:43:16;99948.50;;;30.39
18713;BMP280;9485;49.386;8.674;2022-09-13T09:48:44;99963.97;;;30.81
18713;BMP280;9485;49.386;8.674;2022-09-13T09:54:06;99975.53;;;31.35
18713;BMP280;9485;49.386;8.674;2022-09-13T09:59:31;99973.13;;;31.45
18713;BMP280;9485;49.386;8.674;2022-09-13T10:05:04;99962.75;;;31.13
18713;BMP280;9485;49.386;8.674;2022-09-13T10:10:36;99933.88;;;31.19
18713;BMP280;9485;49.386;8.674;2022-09-13T10:16:01;99924.09;;;31.13
18713;BMP280;9485;49.386;8.674;2022-09-13T10:21:25;99923.88;;;30.82
18713;BMP280;9485;49.386;8.674;2022-09-13T10:26:47;99928.31;;;30.43
18713;BMP280;9485;49.386;8.674;2022-09-13T10:32:10;99943.59;;;30.03
18713;BMP280;9485;49.386;8.674;2022-09-13T10:37:34;99957.00;;;29.83
18713;BMP280;9485;49.386;8.674;2022-09-13T10:42:57;99978.22;;;29.85
18713;BMP280;9485;49.386;8.674;2022-09-13T10:48:21;99971.44;;;30.06
18713;BMP280;9485;49.386;8.674;2022-09-13T10:53:42;99965.75;;;30.21
18713;BMP280;9485;49.386;8.674;2022-09-13T10:59:18;99964.78;;;30.30
18713;BMP280;9485;49.386;8.674;2022-09-13T11:05:15;99953.09;;;30.17
18713;BMP280;9485;49.386;8.674;2022-09-13T11:10:50;99936.03;;;29.98
18713;BMP280;9485;49.386;8.674;2022-09-13T11:16:33;99931.97;;;29.78
18713;BMP280;9485;49.386;8.674;2022-09-13T11:22:22;99929.66;;;29.63
18713;BMP280;9485;49.386;8.674;2022-09-13T11:27:59;99941.03;;;29.34
18713;BMP280;9485;49.386;8.674;2022-09-13T11:33:40;99928.28;;;29.03
18713;BMP280;9485;49.386;8.674;2022-09-13T11:39:20;99930.97;;;28.88
18713;BMP280;9485;49.386;8.674;2022-09-13T11:45:17;99927.06;;;28.83
18713;BMP280;9485;49.386;8.674;2022-09-13T11:50:56;99920.84;;;28.89
18713;BMP280;9485;49.386;8.674;2022-09-13T11:56:25;99893.81;;;28.75
18713;BMP280;9485;49.386;8.674;2022-09-13T12:01:53;99881.59;;;28.65
18713;BMP280;9485;49.386;8.674;2022-09-13T12:07:28;99871.50;;;28.66
18713;BMP280;9485;49.386;8.674;2022-09-13T12:12:53;99862.94;;;29.04
18713;BMP280;9485;49.386;8.674;2022-09-13T12:18:21;99848.22;;;29.13
18713;BMP280;9485;49.386;8.674;2022-09-13T12:23:50;99851.91;;;29.39
18713;BMP280;9485;49.386;8.674;2022-09-13T12:29:26;99844.63;;;29.65
18713;BMP280;9485;49.386;8.674;2022-09-13T12:34:57;99849.13;;;30.59
18713;BMP280;9485;49.386;8.674;2022-09-13T12:40:41;99828.13;;;30.90
18713;BMP280;9485;49.386;8.674;2022-09-13T12:46:30;99814.97;;;30.47
18713;BMP280;9485;49.386;8.674;2022-09-13T12:52:23;99815.28;;;30.12
18713;BMP280;9485;49.386;8.674;2022-09-13T12:57:56;99812.25;;;29.97
18713;BMP280;9485;49.386;8.674;2022-09-13T13:03:28;99812.34;;;29.85
18713;BMP280;9485;49.386;8.674;2022-09-13T13:08:54;99801.31;;;29.70
18713;BMP280;9485;49.386;8.674;2022-09-13T13:14:43;99795.25;;;29.53
18713;BMP280;9485;49.386;8.674;2022-09-13T13:20:46;99788.06;;;29.54
18713;BMP280;9485;49.386;8.674;2022-09-13T13:26:10;99784.50;;;29.82
18713;BMP280;9485;49.386;8.674;2022-09-13T13:31:38;99777.84;;;30.34
18713;BMP280;9485;49.386;8.674;2022-09-13T13:37:04;99782.78;;;30.58
18713;BMP280;9485;49.386;8.674;2022-09-13T13:42:42;99791.28;;;30.67
18713;BMP280;9485;49.386;8.674;2022-09-13T13:48:11;99778.16;;;30.82
18713;BMP280;9485;49.386;8.674;2022-09-13T13:53:35;99776.03;;;31.11
18713;BMP280;9485;49.386;8.674;2022-09-13T13:59:04;99783.00;;;31.20
18713;BMP280;9485;49.386;8.674;2022-09-13T14:04:58;99764.69;;;31.04
18713;BMP280;9485;49.386;8.674;2022-09-13T14:10:35;99751.19;;;30.81
18713;BMP280;9485;49.386;8.674;2022-09-13T14:16:08;99742.94;;;30.62
18713;BMP280;9485;49.386;8.674;2022-09-13T14:21:30;99741.78;;;30.54
18713;BMP280;9485;49.386;8.674;2022-09-13T14:26:58;99734.66;;;30.44
18713;BMP280;9485;49.386;8.674;2022-09-13T14:32:23;99720.78;;;30.29
18713;BMP280;9485;49.386;8.674;2022-09-13T14:37:44;99728.25;;;30.18
18713;BMP280;9485;49.386;8.674;2022-09-13T14:43:16;99711.13;;;30.11
18713;BMP280;9485;49.386;8.674;2022-09-13T14:48:40;99711.91;;;29.98
18713;BMP280;9485;49.386;8.674;2022-09-13T14:54:12;99700.47;;;29.88
18713;BMP280;9485;49.386;8.674;2022-09-13T14:59:43;99695.38;;;29.89
18713;BMP280;9485;49.386;8.674;2022-09-13T15:05:12;99693.66;;;29.84
18713;BMP280;9485;49.386;8.674;2022-09-13T15:10:42;99680.63;;;29.71
18713;BMP280;9485;49.386;8.674;2022-09-13T15:16:28;99664.69;;;29.59
18713;BMP280;9485;49.386;8.674;2022-09-13T15:21:50;99659.75;;;29.48
18713;BMP280;9485;49.386;8.674;2022-09-13T15:27:24;99638.75;;;29.36
18713;BMP280;9485;49.386;8.674;2022-09-13T15:32:47;99651.44;;;29.29
18713;BMP280;9485;49.386;8.674;2022-09-13T15:38:26;99656.16;;;29.23
18713;BMP280;9485;49.386;8.674;2022-09-13T15:43:47;99619.31;;;29.14
18713;BMP280;9485;49.386;8.674;2022-09-13T15:49:15;99623.59;;;29.13
18713;BMP280;9485;49.386;8.674;2022-09-13T15:54:38;99613.28;;;29.10
18713;BMP280;9485;49.386;8.674;2022-09-13T15:59:59;99599.81;;;29.03
18713;BMP280;9485;49.386;8.674;2022-09-13T16:05:21;99604.66;;;28.98
18713;BMP280;9485;49.386;8.674;2022-09-13T16:10:43;99594.75;;;28.90
18713;BMP280;9485;49.386;8.674;2022-09-13T16:16:04;99600.50;;;28.77
18713;BMP280;9485;49.386;8.674;2022-09-13T16:21:26;99598.84;;;28.60
18713;BMP280;9485;49.386;8.674;2022-09-13T16:26:47;99604.94;;;28.39
18713;BMP280;9485;49.386;8.674;2022-09-13T16:32:08;99590.00;;;28.20
18713;BMP280;9485;49.386;8.674;2022-09-13T16:37:30;99594.09;;;28.04
18713;BMP280;9485;49.386;8.674;2022-09-13T16:42:51;99590.91;;;27.86
18713;BMP280;9485;49.386;8.674;2022-09-13T16:48:12;99595.63;;;27.68
18713;BMP280;9485;49.386;8.674;2022-09-13T16:53:37;99598.91;;;27.51
18713;BMP280;9485;49.386;8.674;2022-09-13T16:58:58;99582.56;;;27.33
18713;BMP280;9485;49.386;8.674;2022-09-13T17:04:19;99591.03;;;27.18
18713;BMP280;9485;49.386;8.674;2022-09-13T17:09:41;99587.28;;;27.04
18713;BMP280;9485;49.386;8.674;2022-09-13T17:15:03;99590.25;;;26.83
18713;BMP280;9485;49.386;8.674;2022-09-13T17:20:24;99595.91;;;26.69
18713;BMP280;9485;49.386;8.674;2022-09-13T17:25:48;99608.00;;;26.55
18713;BMP280;9485;49.386;8.674;2022-09-13T17:31:09;99619.91;;;26.38
18713;BMP280;9485;49.386;8.674;2022-09-13T17:36:29;99616.56;;;26.20
18713;BMP280;9485;49.386;8.674;2022-09-13T17:41:52;99612.97;;;25.99
18713;BMP280;9485;49.386;8.674;2022-09-13T17:47:12;99605.94;;;25.81
18713;BMP280;9485;49.386;8.674;2022-09-13T17:52:33;99600.72;;;25.68
18713;BMP280;9485;49.386;8.674;2022-09-13T17:57:55;99594.22;;;25.58
18713;BMP280;9485;49.386;8.674;2022-09-13T18:03:15;99579.75;;;25.47
18713;BMP280;9485;49.386;8.674;2022-09-13T18:08:38;99585.56;;;25.37
18713;BMP280;9485;49.386;8.674;2022-09-13T18:14:00;99572.56;;;25.27
18713;BMP280;9485;49.386;8.674;2022-09-13T18:19:21;99569.75;;;25.17
18713;BMP280;9485;49.386;8.674;2022-09-13T18:24:42;99569.16;;;25.09
18713;BMP280;9485;49.386;8.674;2022-09-13T18:30:05;99593.09;;;25.01
18713;BMP280;9485;49.386;8.674;2022-09-13T18:35:26;99592.22;;;24.89
18713;BMP280;9485;49.386;8.674;2022-09-13T18:40:57;99611.56;;;24.77
18713;BMP280;9485;49.386;8.674;2022-09-13T18:46:22;99621.50;;;24.64
18713;BMP280;9485;49.386;8.674;2022-09-13T18:51:44;99614.22;;;24.54
18713;BMP280;9485;49.386;8.674;2022-09-13T18:57:05;99620.81;;;24.45
18713;BMP280;9485;49.386;8.674;2022-09-13T19:02:27;99603.34;;;24.33
18713;BMP280;9485;49.386;8.674;2022-09-13T19:07:49;99608.38;;;24.23
18713;BMP280;9485;49.386;8.674;2022-09-13T19:13:09;99602.47;;;24.12
18713;BMP280;9485;49.386;8.674;2022-09-13T19:18:33;99600.06;;;23.99
18713;BMP280;9485;49.386;8.674;2022-09-13T19:23:55;99595.50;;;23.87
18713;BMP280;9485;49.386;8.674;2022-09-13T19:29:18;99596.41;;;23.80
18713;BMP280;9485;49.386;8.674;2022-09-13T19:34:44;99600.06;;;23.71
18713;BMP280;9485;49.386;8.674;2022-09-13T19:40:07;99607.03;;;23.68
18713;BMP280;9485;49.386;8.674;2022-09-13T19:45:29;99610.19;;;23.62
18713;BMP280;9485;49.386;8.674;2022-09-13T19:50:51;99610.66;;;23.59
18713;BMP280;9485;49.386;8.674;2022-09-13T19:56:14;99599.56;;;23.55
18713;BMP280;9485;49.386;8.674;2022-09-13T20:01:38;99617.31;;;23.52
18713;BMP280;9485;49.386;8.674;2022-09-13T20:07:00;99609.72;;;23.47
18713;BMP280;9485;49.386;8.674;2022-09-13T20:12:21;99606.69;;;23.45
18713;BMP280;9485;49.386;8.674;2022-09-13T20:17:42;99616.72;;;23.44
18713;BMP280;9485;49.386;8.674;2022-09-13T20:23:03;99621.53;;;23.42
18713;BMP280;9485;49.386;8.674;2022-09-13T20:28:24;99617.00;;;23.39
18713;BMP280;9485;49.386;8.674;2022-09-13T20:33:46;99606.84;;;23.28
18713;BMP280;9485;49.386;8.674;2022-09-13T20:39:09;99608.03;;;23.35
18713;BMP280;9485;49.386;8.674;2022-09-13T20:44:29;99614.25;;;23.31
18713;BMP280;9485;49.386;8.674;2022-09-13T20:49:50;99615.31;;;23.26
18713;BMP280;9485;49.386;8.674;2022-09-13T20:55:12;99611.22;;;23.20
18713;BMP280;9485;49.386;8.674;2022-09-13T21:00:33;99599.22;;;23.14
18713;BMP280;9485;49.386;8.674;2022-09-13T21:05:53;99603.16;;;23.09
18713;BMP280;9485;49.386;8.674;2022-09-13T21:11:18;99603.84;;;23.00
18713;BMP280;9485;49.386;8.674;2022-09-13T21:16:39;99595.78;;;22.89
18713;BMP280;9485;49.386;8.674;2022-09-13T21:22:00;99592.59;;;22.85
18713;BMP280;9485;49.386;8.674;2022-09-13T21:27:22;99591.66;;;22.82
18713;BMP280;9485;49.386;8.674;2022-09-13T21:32:43;99572.56;;;22.77
18713;BMP280;9485;49.386;8.674;2022-09-13T21:38:04;99578.59;;;22.72
18713;BMP280;9485;49.386;8.674;2022-09-13T21:43:26;99571.63;;;22.66
18713;BMP280;9485;49.386;8.674;2022-09-13T21:48:50;99548.28;;;22.62
18713;BMP280;9485;49.386;8.674;2022-09-13T21:54:13;99557.34;;;22.58
18713;BMP280;9485;49.386;8.674;2022-09-13T21:59:35;99550.84;;;22.58
18713;BMP280;9485;49.386;8.674;2022-09-13T22:04:56;99539.78;;;22.54
18713;BMP280;9485;49.386;8.674;2022-09-13T22:10:20;99535.72;;;22.57
18713;BMP280;9485;49.386;8.674;2022-09-13T22:15:48;99529.34;;;22.59
18713;BMP280;9485;49.386;8.674;2022-09-13T22:21:12;99525.13;;;22.60
18713;BMP280;9485;49.386;8.674;2022-09-13T22:26:36;99512.84;;;22.59
18713;BMP280;9485;49.386;8.674;2022-09-13T22:31:59;99505.72;;;22.60
18713;BMP280;9485;49.386;8.674;2022-09-13T22:37:19;99489.22;;;22.61
18713;BMP280;9485;49.386;8.674;2022-09-13T22:42:40;99477.72;;;22.61
18713;BMP280;9485;49.386;8.674;2022-09-13T22:48:02;99475.31;;;22.67
18713;BMP280;9485;49.386;8.674;2022-09-13T22:53:24;99485.13;;;22.64
18713;BMP280;9485;49.386;8.674;2022-09-13T22:58:53;99479.66;;;22.58
18713;BMP280;9485;49.386;8.674;2022-09-13T23:04:15;99455.72;;;22.46
18713;BMP280;9485;49.386;8.674;2022-09-13T23:09:36;99437.59;;;22.27
18713;BMP280;9485;49.386;8.674;2022-09-13T23:14:57;99451.91;;;22.08
18713;BMP280;9485;49.386;8.674;2022-09-13T23:20:18;99427.50;;;21.90
18713;BMP280;9485;49.386;8.674;2022-09-13T23:25:39;99411.88;;;21.84
18713;BMP280;9485;49.386;8.674;2022-09-13T23:31:08;99403.84;;;21.82
18713;BMP280;9485;49.386;8.674;2022-09-13T23:36:34;99411.22;;;21.76
18713;BMP280;9485;49.386;8.674;2022-09-13T23:41:55;99447.88;;;21.85
18713;BMP280;9485;49.386;8.674;2022-09-13T23:47:16;99447.75;;;21.92
18713;BMP280;9485;49.386;8.674;2022-09-13T23:52:38;99460.53;;;22.08
18713;BMP280;9485;49.386;8.674;2022-09-13T23:57:59;99487.81;;;22.16
